Time;durP1;ratioP1;P1;durP2;ratioP2;P2;SDS_P1;SDS_P2;PMS_P1;PMS_P2;Temp;Humidity;BMP_temperature;BMP_pressure;BME280_temperature;BME280_humidity;BME280_pressure;Samples;Min_cycle;Max_cycle;Signal;HPM_P1;HPM_P2
2020/12/30 00:00:51;;;;;;;3.63;2.17;;;4.30;91.50;;;;;;5084236;28;20650;-89
2020/12/30 00:03:17;;;;;;;2.77;1.97;;;4.30;91.60;;;;;;5082890;28;20195;-89
2020/12/30 00:05:44;;;;;;;2.23;1.97;;;4.20;91.60;;;;;;5084895;28;20182;-89
2020/12/30 00:08:09;;;;;;;2.33;1.90;;;4.20;91.30;;;;;;5083005;28;20215;-89
2020/12/30 00:10:35;;;;;;;3.83;1.90;;;4.20;91.60;;;;;;5083987;28;20233;-89
2020/12/30 00:13:01;;;;;;;3.40;1.93;;;4.30;91.10;;;;;;5083334;28;20225;-88
2020/12/30 00:15:27;;;;;;;2.57;1.80;;;4.20;91.30;;;;;;5083298;28;20207;-89
2020/12/30 00:17:52;;;;;;;2.30;1.63;;;4.20;91.60;;;;;;5082444;28;20179;-88
2020/12/30 00:20:20;;;;;;;4.07;1.90;;;4.10;92.00;;;;;;5082539;28;20180;-88
2020/12/30 00:22:47;;;;;;;2.37;1.80;;;4.20;91.70;;;;;;5080828;28;20307;-89
2020/12/30 00:25:13;;;;;;;3.70;1.63;;;4.10;92.40;;;;;;5082641;28;20182;-88
2020/12/30 00:27:42;;;;;;;1.87;1.63;;;4.20;92.00;;;;;;5081088;28;20182;-89
2020/12/30 00:30:12;;;;;;;1.57;1.47;;;4.10;91.80;;;;;;5082218;28;20186;-88
2020/12/30 00:32:39;;;;;;;2.40;1.70;;;4.10;92.30;;;;;;5082439;28;20201;-89
2020/12/30 00:35:05;;;;;;;2.00;1.80;;;4.10;92.80;;;;;;5083623;28;20551;-89
2020/12/30 00:37:31;;;;;;;2.10;1.90;;;4.10;92.00;;;;;;5082227;28;20190;-89
2020/12/30 00:39:56;;;;;;;3.57;1.77;;;3.90;93.10;;;;;;5083835;28;20199;-89
2020/12/30 00:42:22;;;;;;;4.30;2.13;;;4.00;92.60;;;;;;5082491;28;20203;-88
2020/12/30 00:44:47;;;;;;;3.10;2.00;;;4.10;92.70;;;;;;5084011;28;20674;-89
2020/12/30 00:47:15;;;;;;;3.80;2.00;;;4.00;93.30;;;;;;5083603;28;20172;-89
2020/12/30 00:49:41;;;;;;;2.67;1.70;;;3.90;94.50;;;;;;5083540;28;20393;-89
2020/12/30 00:52:08;;;;;;;5.10;2.03;;;3.90;95.00;;;;;;5082803;28;20209;-89
2020/12/30 00:54:34;;;;;;;2.57;1.93;;;3.90;95.00;;;;;;5083582;28;20187;-89
2020/12/30 00:57:00;;;;;;;3.00;1.87;;;4.00;94.30;;;;;;5083431;28;20176;-89
2020/12/30 00:59:26;;;;;;;3.20;2.20;;;4.00;93.80;;;;;;5081863;28;20563;-88
2020/12/30 01:01:52;;;;;;;2.40;1.93;;;4.00;94.50;;;;;;5065147;28;20203;-89
2020/12/30 01:04:19;;;;;;;2.60;2.30;;;4.00;95.00;;;;;;5064551;28;20187;-89
2020/12/30 01:06:52;;;;;;;4.03;2.20;;;3.90;95.80;;;;;;5083474;28;20661;-89
2020/12/30 01:09:20;;;;;;;9.03;3.77;;;4.00;95.30;;;;;;5081229;28;20708;-89
2020/12/30 01:11:45;;;;;;;9.27;4.97;;;4.00;95.00;;;;;;5081293;28;20190;-90
2020/12/30 01:14:11;;;;;;;15.53;5.43;;;4.00;94.80;;;;;;5082973;28;20258;-87
2020/12/30 01:16:37;;;;;;;6.10;3.00;;;4.00;95.10;;;;;;5082895;28;20187;-89
2020/12/30 01:19:07;;;;;;;3.80;2.30;;;4.10;94.20;;;;;;5082808;28;20241;-90
2020/12/30 01:21:39;;;;;;;3.30;2.00;;;4.20;93.70;;;;;;5082821;28;20195;-90
2020/12/30 01:24:05;;;;;;;3.30;2.00;;;4.20;93.60;;;;;;5062850;28;20236;-89
2020/12/30 01:26:31;;;;;;;2.80;2.10;;;4.30;92.50;;;;;;5061621;28;20202;-89
2020/12/30 01:28:56;;;;;;;2.70;1.90;;;4.20;93.60;;;;;;5062575;28;20192;-89
2020/12/30 01:31:30;;;;;;;2.87;1.97;;;4.10;93.90;;;;;;5061857;28;20283;-89
2020/12/30 01:33:56;;;;;;;3.13;2.10;;;4.20;92.60;;;;;;5072530;28;20286;-89
2020/12/30 01:36:22;;;;;;;4.40;2.20;;;4.20;92.30;;;;;;5082938;28;20188;-89
2020/12/30 01:38:58;;;;;;;3.40;2.37;;;4.20;92.50;;;;;;5082634;28;20243;-89
2020/12/30 01:41:24;;;;;;;2.57;2.10;;;4.10;93.80;;;;;;5081802;28;20203;-88
2020/12/30 01:44:01;;;;;;;3.10;2.07;;;4.10;93.70;;;;;;5082710;28;20191;-88
2020/12/30 01:46:38;;;;;;;2.17;1.97;;;4.20;93.20;;;;;;5083047;28;20159;-88
2020/12/30 01:49:07;;;;;;;2.33;1.90;;;4.10;93.40;;;;;;5081749;28;20211;-88
2020/12/30 01:51:33;;;;;;;2.83;2.00;;;4.10;93.60;;;;;;5081787;28;20697;-88
2020/12/30 01:54:01;;;;;;;3.77;1.93;;;4.30;92.00;;;;;;5082493;28;20211;-88
2020/12/30 01:56:32;;;;;;;2.43;1.50;;;4.30;92.30;;;;;;5082668;28;20180;-88
2020/12/30 01:58:58;;;;;;;3.77;1.83;;;4.40;91.30;;;;;;5083754;28;20207;-88
2020/12/30 02:01:28;;;;;;;2.30;2.00;;;4.40;91.30;;;;;;5084189;28;20227;-89
2020/12/30 02:03:55;;;;;;;1.67;1.57;;;4.20;92.10;;;;;;5061628;28;20524;-88
2020/12/30 02:06:21;;;;;;;2.10;1.80;;;4.30;92.00;;;;;;5063956;28;20642;-88
2020/12/30 02:08:48;;;;;;;2.20;2.00;;;4.30;92.60;;;;;;5062098;28;20236;-88
2020/12/30 02:11:13;;;;;;;2.57;1.73;;;4.20;92.40;;;;;;5064255;28;20259;-87
2020/12/30 02:13:39;;;;;;;2.27;1.60;;;4.30;92.00;;;;;;5065088;28;20211;-88
2020/12/30 02:16:05;;;;;;;1.90;1.70;;;4.20;92.00;;;;;;5064168;28;20188;-88
2020/12/30 02:18:30;;;;;;;2.77;1.80;;;4.30;90.90;;;;;;5063138;28;20215;-88
2020/12/30 02:20:56;;;;;;;2.50;1.80;;;4.20;92.00;;;;;;5081886;28;20534;-88
2020/12/30 02:23:22;;;;;;;1.90;1.70;;;4.40;90.20;;;;;;5082472;28;20282;-88
2020/12/30 02:25:48;;;;;;;1.47;1.37;;;4.50;90.20;;;;;;5083094;28;20191;-88
2020/12/30 02:28:13;;;;;;;1.67;1.47;;;4.30;91.20;;;;;;5065491;28;20233;-88
2020/12/30 02:30:39;;;;;;;2.13;1.77;;;4.40;90.60;;;;;;5083885;28;20179;-88
2020/12/30 02:33:09;;;;;;;2.43;1.50;;;4.40;90.10;;;;;;5082396;28;20207;-88
2020/12/30 02:35:35;;;;;;;2.20;1.50;;;4.50;89.60;;;;;;5084019;28;20190;-88
2020/12/30 02:38:01;;;;;;;1.83;1.47;;;4.40;89.70;;;;;;5081794;28;20678;-87
2020/12/30 02:40:27;;;;;;;2.23;1.73;;;4.40;90.50;;;;;;5084075;28;20199;-88
2020/12/30 02:42:52;;;;;;;2.13;1.67;;;4.30;91.30;;;;;;5082292;28;20199;-88
2020/12/30 02:45:19;;;;;;;2.07;1.87;;;4.30;91.30;;;;;;5082047;28;20186;-88
2020/12/30 02:47:44;;;;;;;3.47;1.90;;;4.20;90.80;;;;;;5083296;28;20190;-88
2020/12/30 02:50:11;;;;;;;1.53;1.40;;;4.30;91.20;;;;;;5083281;28;20179;-89
2020/12/30 02:52:36;;;;;;;2.43;1.50;;;4.40;90.20;;;;;;5082236;28;20207;-89
2020/12/30 02:55:02;;;;;;;1.40;1.30;;;4.50;89.20;;;;;;5081648;28;20199;-88
2020/12/30 02:57:28;;;;;;;2.63;1.60;;;4.40;90.20;;;;;;5082234;28;20214;-89
2020/12/30 02:59:57;;;;;;;2.90;1.50;;;4.40;90.40;;;;;;5083058;28;20235;-88
2020/12/30 03:02:26;;;;;;;1.83;1.50;;;4.30;90.40;;;;;;5083009;28;20216;-89
2020/12/30 03:04:54;;;;;;;1.97;1.60;;;4.50;89.20;;;;;;5082982;28;20266;-88
2020/12/30 03:07:20;;;;;;;2.93;1.60;;;4.50;89.10;;;;;;5083245;28;20194;-88
2020/12/30 03:09:46;;;;;;;1.40;1.30;;;4.60;89.00;;;;;;5081226;28;20613;-88
2020/12/30 03:12:12;;;;;;;1.97;1.70;;;4.50;88.80;;;;;;5081307;28;20211;-88
2020/12/30 03:14:38;;;;;;;3.67;1.80;;;4.60;88.80;;;;;;5083644;28;20550;-88
2020/12/30 03:17:03;;;;;;;2.33;1.73;;;4.50;89.10;;;;;;5087067;28;20188;-88
2020/12/30 03:19:29;;;;;;;2.30;1.60;;;4.40;90.20;;;;;;5084581;28;20215;-88
2020/12/30 03:21:56;;;;;;;1.93;1.60;;;4.40;90.40;;;;;;5086512;28;20206;-88
2020/12/30 03:24:22;;;;;;;2.97;1.90;;;4.40;90.80;;;;;;5086908;28;20199;-88
2020/12/30 03:26:49;;;;;;;2.93;1.60;;;4.50;90.40;;;;;;5087188;28;20167;-88
2020/12/30 03:29:14;;;;;;;2.00;1.40;;;4.40;90.60;;;;;;5086869;28;20191;-88
2020/12/30 03:31:40;;;;;;;2.07;1.70;;;4.40;91.10;;;;;;5083994;28;20183;-88
2020/12/30 03:34:08;;;;;;;2.90;2.10;;;4.50;92.20;;;;;;5085079;28;20558;-88
2020/12/30 03:36:34;;;;;;;2.77;1.67;;;4.40;91.70;;;;;;5086595;28;20210;-88
2020/12/30 03:38:59;;;;;;;2.77;1.70;;;4.30;91.30;;;;;;5085706;28;20207;-87
2020/12/30 03:41:25;;;;;;;2.87;1.93;;;4.30;91.50;;;;;;5084757;28;20214;-88
2020/12/30 03:43:51;;;;;;;3.33;1.57;;;4.30;91.90;;;;;;5084820;28;20329;-88
2020/12/30 03:46:17;;;;;;;2.20;1.50;;;4.40;91.70;;;;;;5068813;28;20187;-88
2020/12/30 03:48:42;;;;;;;2.57;1.50;;;4.40;89.90;;;;;;5085767;28;20207;-88
2020/12/30 03:51:08;;;;;;;3.23;1.70;;;4.30;91.10;;;;;;5084807;28;20188;-88
2020/12/30 03:53:33;;;;;;;2.33;1.77;;;4.30;91.10;;;;;;5086058;28;20184;-88
2020/12/30 03:55:59;;;;;;;3.27;1.70;;;4.40;91.00;;;;;;5084804;28;20184;-88
2020/12/30 03:58:25;;;;;;;3.53;2.00;;;4.40;90.70;;;;;;5085216;28;20212;-88
2020/12/30 04:00:50;;;;;;;4.70;1.97;;;4.50;89.50;;;;;;5085906;28;20172;-88
2020/12/30 04:03:16;;;;;;;3.27;2.17;;;4.50;89.40;;;;;;5086290;28;20187;-88
2020/12/30 04:05:42;;;;;;;2.60;1.83;;;4.50;90.70;;;;;;5084514;28;20191;-88
2020/12/30 04:08:08;;;;;;;4.33;2.00;;;4.50;88.80;;;;;;5084481;28;20211;-88
2020/12/30 04:10:33;;;;;;;5.97;2.30;;;4.40;89.20;;;;;;5085464;28;20187;-88
2020/12/30 04:12:59;;;;;;;2.60;1.80;;;4.30;89.90;;;;;;5085701;28;20187;-88
2020/12/30 04:15:25;;;;;;;4.30;1.80;;;4.30;89.70;;;;;;5085664;28;20579;-88
2020/12/30 04:17:50;;;;;;;3.20;2.03;;;4.30;89.20;;;;;;5085027;28;20191;-88
2020/12/30 04:20:16;;;;;;;3.90;2.20;;;4.30;89.30;;;;;;5085427;28;20551;-87
2020/12/30 04:22:42;;;;;;;3.10;2.00;;;4.20;90.10;;;;;;5051024;28;20620;-88
2020/12/30 04:25:07;;;;;;;3.17;2.20;;;4.10;90.30;;;;;;5084522;28;20171;-88
2020/12/30 04:27:33;;;;;;;2.23;1.90;;;4.30;89.30;;;;;;5084163;28;20184;-88
2020/12/30 04:29:58;;;;;;;4.83;2.00;;;4.20;89.80;;;;;;5085641;28;20256;-88
2020/12/30 04:32:24;;;;;;;3.57;2.00;;;4.10;90.10;;;;;;5085117;28;20184;-88
2020/12/30 04:34:50;;;;;;;4.77;2.30;;;4.20;90.00;;;;;;5084958;28;20203;-87
2020/12/30 04:37:15;;;;;;;2.80;2.13;;;4.20;89.10;;;;;;5084399;28;20187;-88
2020/12/30 04:39:41;;;;;;;3.10;2.10;;;4.30;89.30;;;;;;5083966;28;20231;-88
2020/12/30 04:42:08;;;;;;;4.07;2.37;;;4.20;88.90;;;;;;5067333;28;20200;-89
2020/12/30 04:44:37;;;;;;;3.70;2.20;;;4.40;88.80;;;;;;5084241;28;20638;-88
2020/12/30 04:47:03;;;;;;;5.60;2.17;;;4.20;89.30;;;;;;5084469;28;20184;-88
2020/12/30 04:49:30;;;;;;;5.37;2.23;;;4.20;90.10;;;;;;5083659;28;20217;-88
2020/12/30 04:51:56;;;;;;;3.33;1.90;;;4.30;88.30;;;;;;5083453;28;20338;-88
2020/12/30 04:54:23;;;;;;;4.37;2.40;;;4.30;88.90;;;;;;5084708;28;20192;-88
2020/12/30 04:57:01;;;;;;;6.47;2.40;;;4.20;89.50;;;;;;5084894;28;20271;-88
2020/12/30 04:59:40;;;;;;;2.70;2.07;;;4.30;88.80;;;;;;5083621;28;20199;-88
2020/12/30 05:02:07;;;;;;;3.40;1.90;;;4.20;89.20;;;;;;5082938;28;20203;-88
2020/12/30 05:04:38;;;;;;;2.90;2.37;;;4.30;88.20;;;;;;5084194;28;20178;-88
2020/12/30 05:07:14;;;;;;;2.83;1.87;;;4.20;89.20;;;;;;5084068;28;20202;-89
2020/12/30 05:09:42;;;;;;;3.13;2.10;;;4.20;89.80;;;;;;5083868;28;20208;-88
2020/12/30 05:12:17;;;;;;;2.80;2.00;;;4.20;89.20;;;;;;5082719;28;20183;-87
2020/12/30 05:14:43;;;;;;;2.87;2.10;;;4.30;89.50;;;;;;5084042;28;20179;-87
2020/12/30 05:17:11;;;;;;;6.07;2.30;;;4.30;88.20;;;;;;5083185;28;20182;-86
2020/12/30 05:19:37;;;;;;;4.13;2.20;;;4.20;89.10;;;;;;5066173;28;20238;-88
2020/12/30 05:22:03;;;;;;;2.50;1.90;;;4.20;88.70;;;;;;5084157;28;20209;-88
2020/12/30 05:24:30;;;;;;;3.00;2.00;;;4.30;89.00;;;;;;5084261;28;20183;-88
2020/12/30 05:26:57;;;;;;;4.60;1.83;;;4.20;89.20;;;;;;5081956;28;20171;-88
2020/12/30 05:29:24;;;;;;;2.57;2.03;;;4.40;88.10;;;;;;5084294;28;20195;-88
2020/12/30 05:31:56;;;;;;;2.73;1.90;;;4.40;87.90;;;;;;5083075;28;20184;-88
2020/12/30 05:34:23;;;;;;;3.27;1.90;;;4.40;88.70;;;;;;5082074;28;20191;-87
2020/12/30 05:36:52;;;;;;;2.90;2.03;;;4.40;88.40;;;;;;5081969;28;20184;-88
2020/12/30 05:39:33;;;;;;;2.67;2.20;;;4.30;88.80;;;;;;5082279;28;20310;-89
2020/12/30 05:42:16;;;;;;;1.87;1.70;;;4.20;88.70;;;;;;5084029;28;20208;-88
2020/12/30 05:44:43;;;;;;;3.47;1.93;;;4.50;86.90;;;;;;5082251;28;20214;-88
2020/12/30 05:47:12;;;;;;;3.40;2.00;;;4.60;86.40;;;;;;5082704;28;20183;-88
2020/12/30 05:49:38;;;;;;;1.87;1.70;;;4.60;86.00;;;;;;5083733;28;20210;-88
2020/12/30 05:52:11;;;;;;;3.60;1.93;;;4.60;86.40;;;;;;5084338;28;20176;-88
2020/12/30 05:54:37;;;;;;;5.40;1.70;;;4.60;86.90;;;;;;5081537;28;20187;-88
2020/12/30 05:57:27;;;;;;;3.13;1.83;;;4.50;87.20;;;;;;5079273;28;20263;-88
2020/12/30 05:59:55;;;;;;;1.67;1.57;;;4.50;87.50;;;;;;5079460;28;20263;-88
2020/12/30 06:02:27;;;;;;;4.27;1.97;;;4.50;87.30;;;;;;5077875;28;20203;-88
2020/12/30 06:05:11;;;;;;;2.40;2.00;;;4.40;88.10;;;;;;5079394;28;20176;-89
2020/12/30 06:07:47;;;;;;;2.90;2.17;;;4.40;88.40;;;;;;5079468;28;20229;-88
2020/12/30 06:10:16;;;;;;;3.43;2.00;;;4.40;88.10;;;;;;5060566;28;20206;-88
2020/12/30 06:12:48;;;;;;;2.93;1.80;;;4.30;89.10;;;;;;5079269;28;20187;-88
2020/12/30 06:15:15;;;;;;;3.97;1.87;;;4.40;88.10;;;;;;5079365;28;20248;-88
2020/12/30 06:18:10;;;;;;;3.53;2.00;;;4.40;88.40;;;;;;5079179;28;20183;-87
2020/12/30 06:20:37;;;;;;;2.47;2.10;;;4.20;88.60;;;;;;5083059;28;20172;-88
2020/12/30 06:23:12;;;;;;;2.93;1.97;;;4.20;89.50;;;;;;5088036;28;20210;-88
2020/12/30 06:25:45;;;;;;;1.83;1.70;;;4.40;88.10;;;;;;5081572;28;20167;-87
2020/12/30 06:28:17;;;;;;;2.53;1.63;;;4.30;88.40;;;;;;5081724;28;20268;-87
2020/12/30 06:30:45;;;;;;;3.93;1.70;;;4.10;89.50;;;;;;5081854;28;20226;-88
2020/12/30 06:33:11;;;;;;;3.83;2.33;;;4.10;89.90;;;;;;5080049;28;20199;-88
2020/12/30 06:35:42;;;;;;;4.33;1.87;;;4.20;89.00;;;;;;5078271;28;20187;-87
2020/12/30 06:38:20;;;;;;;1.90;1.57;;;4.00;90.30;;;;;;5080534;28;20244;-88
2020/12/30 06:41:06;;;;;;;3.40;1.60;;;4.00;90.50;;;;;;5078972;28;20189;-88
2020/12/30 06:43:49;;;;;;;3.47;1.90;;;4.20;89.60;;;;;;5080084;28;20171;-87
2020/12/30 06:46:35;;;;;;;4.20;1.77;;;4.20;89.20;;;;;;5080212;28;20225;-87
2020/12/30 06:49:05;;;;;;;2.27;1.70;;;4.30;88.70;;;;;;5081591;28;20191;-87
2020/12/30 06:51:43;;;;;;;2.77;1.97;;;4.20;89.40;;;;;;5080839;28;20710;-88
2020/12/30 06:54:09;;;;;;;3.03;1.80;;;4.20;89.10;;;;;;5082361;28;20693;-88
2020/12/30 06:56:40;;;;;;;3.90;1.60;;;4.20;88.90;;;;;;5080774;28;20180;-88
2020/12/30 06:59:16;;;;;;;2.77;1.57;;;4.20;88.70;;;;;;5081772;28;20195;-88
2020/12/30 07:02:02;;;;;;;5.00;1.93;;;4.40;87.90;;;;;;5059716;28;20199;-88
2020/12/30 07:04:29;;;;;;;1.90;1.67;;;4.30;88.50;;;;;;5076266;28;20191;-88
2020/12/30 07:06:55;;;;;;;1.97;1.30;;;4.20;88.80;;;;;;5080515;28;20171;-88
2020/12/30 07:09:35;;;;;;;2.77;1.60;;;4.30;88.30;;;;;;5080252;28;20213;-88
2020/12/30 07:12:05;;;;;;;2.07;1.57;;;4.30;88.60;;;;;;5079708;28;20215;-87
2020/12/30 07:14:32;;;;;;;2.67;1.77;;;4.40;88.00;;;;;;5080317;28;20183;-88
2020/12/30 07:17:05;;;;;;;2.57;1.87;;;4.40;87.70;;;;;;5059305;28;20215;-87
2020/12/30 07:19:35;;;;;;;3.07;1.80;;;4.40;88.10;;;;;;5061279;28;20214;-88
2020/12/30 07:22:09;;;;;;;2.43;1.90;;;4.30;89.10;;;;;;5063847;28;20256;-87
2020/12/30 07:24:55;;;;;;;3.23;1.93;;;4.30;88.30;;;;;;5080701;28;20210;-87
2020/12/30 07:27:26;;;;;;;3.50;1.90;;;4.30;88.80;;;;;;5081422;28;20180;-88
2020/12/30 07:29:51;;;;;;;1.70;1.60;;;4.30;89.50;;;;;;5081798;28;20191;-88
2020/12/30 07:32:20;;;;;;;3.80;1.87;;;4.40;89.10;;;;;;5080274;28;20615;-88
2020/12/30 07:34:47;;;;;;;3.13;2.03;;;4.40;88.40;;;;;;5081285;28;20214;-88
2020/12/30 07:37:14;;;;;;;2.90;1.97;;;4.40;88.60;;;;;;5080180;28;20175;-87
2020/12/30 07:39:42;;;;;;;2.27;1.73;;;4.40;89.30;;;;;;5080908;28;20215;-87
2020/12/30 07:42:19;;;;;;;2.27;1.80;;;4.30;89.70;;;;;;5080842;28;20203;-88
2020/12/30 07:44:56;;;;;;;2.47;1.90;;;4.30;89.70;;;;;;5080126;28;20190;-87
2020/12/30 07:47:23;;;;;;;1.67;1.57;;;4.30;89.90;;;;;;5079263;28;20575;-87
2020/12/30 07:49:49;;;;;;;2.40;2.17;;;4.50;88.30;;;;;;5080072;28;20671;-88
2020/12/30 07:52:14;;;;;;;4.27;1.90;;;4.40;89.00;;;;;;5057561;28;20214;-87
2020/12/30 07:54:40;;;;;;;3.80;2.20;;;4.40;89.70;;;;;;5082637;28;20196;-88
2020/12/30 07:57:11;;;;;;;2.37;1.80;;;4.50;89.20;;;;;;5081818;28;20171;-87
2020/12/30 07:59:47;;;;;;;3.93;2.00;;;4.60;88.70;;;;;;5082181;28;20203;-88
2020/12/30 08:02:19;;;;;;;3.97;2.00;;;4.60;88.30;;;;;;5079084;28;20294;-88
2020/12/30 08:04:46;;;;;;;2.70;2.03;;;4.60;88.20;;;;;;5079491;28;20198;-88
2020/12/30 08:07:16;;;;;;;4.70;2.20;;;4.50;89.10;;;;;;5077678;28;20654;-88
2020/12/30 08:09:43;;;;;;;2.00;1.83;;;4.30;90.30;;;;;;5079731;28;20261;-88
2020/12/30 08:12:11;;;;;;;3.60;1.80;;;4.30;90.50;;;;;;5078682;28;20211;-88
2020/12/30 08:14:38;;;;;;;3.70;1.80;;;4.50;89.20;;;;;;5079917;28;20199;-88
2020/12/30 08:17:12;;;;;;;2.60;1.80;;;4.50;89.90;;;;;;5079154;28;20700;-88
2020/12/30 08:19:42;;;;;;;2.40;2.00;;;4.60;89.60;;;;;;5061913;28;20207;-88
2020/12/30 08:22:16;;;;;;;2.70;2.03;;;4.50;89.30;;;;;;5063283;28;20557;-88
2020/12/30 08:24:43;;;;;;;3.17;2.53;;;4.50;89.10;;;;;;5079876;28;20176;-87
2020/12/30 08:27:10;;;;;;;2.80;2.33;;;4.50;88.80;;;;;;5079171;28;20644;-88
2020/12/30 08:29:40;;;;;;;3.13;2.23;;;4.60;88.20;;;;;;5081365;28;20202;-88
2020/12/30 08:32:21;;;;;;;5.80;1.90;;;4.70;87.20;;;;;;5079066;28;20225;-88
2020/12/30 08:34:54;;;;;;;4.80;2.40;;;4.70;87.90;;;;;;5085311;28;20221;-88
2020/12/30 08:37:28;;;;;;;2.53;1.97;;;4.80;87.20;;;;;;5083511;28;20183;-88
2020/12/30 08:40:00;;;;;;;2.97;2.40;;;4.80;86.90;;;;;;5083980;28;20215;-89
2020/12/30 08:42:35;;;;;;;1.97;1.53;;;4.80;87.20;;;;;;5083627;28;20211;-88
2020/12/30 08:45:06;;;;;;;2.33;1.77;;;4.80;87.10;;;;;;5082440;28;20258;-88
2020/12/30 08:47:38;;;;;;;2.83;1.87;;;4.80;87.30;;;;;;5081961;28;20179;-88
2020/12/30 08:50:09;;;;;;;2.80;2.10;;;4.80;86.90;;;;;;5078125;28;20252;-88
2020/12/30 08:52:56;;;;;;;3.80;2.20;;;4.90;87.30;;;;;;5079841;28;20184;-88
2020/12/30 08:55:22;;;;;;;5.03;2.67;;;4.80;87.20;;;;;;5059894;28;20181;-88
2020/12/30 08:57:49;;;;;;;4.00;3.20;;;4.80;87.60;;;;;;5081075;28;20198;-88
2020/12/30 09:00:23;;;;;;;4.10;2.50;;;4.80;88.60;;;;;;5082194;28;20678;-87
2020/12/30 09:02:51;;;;;;;3.47;1.93;;;4.80;88.80;;;;;;5083507;28;20297;-88
2020/12/30 09:05:26;;;;;;;2.87;2.30;;;4.90;87.90;;;;;;5085851;28;20208;-87
2020/12/30 09:07:52;;;;;;;5.00;2.33;;;5.00;88.10;;;;;;5084307;28;20526;-88
2020/12/30 09:10:18;;;;;;;3.63;1.83;;;4.90;88.90;;;;;;5083325;28;20560;-87
2020/12/30 09:12:44;;;;;;;3.57;2.20;;;5.00;88.90;;;;;;5081643;28;20258;-87
2020/12/30 09:15:10;;;;;;;3.67;2.60;;;5.00;89.10;;;;;;5063035;28;20274;-87
2020/12/30 09:17:38;;;;;;;4.30;2.07;;;5.00;87.90;;;;;;5083924;28;20195;-88
2020/12/30 09:20:30;;;;;;;5.60;2.60;;;5.00;88.20;;;;;;5084253;28;20208;-88
2020/12/30 09:23:00;;;;;;;2.57;1.97;;;4.90;88.60;;;;;;5079779;28;20245;-88
2020/12/30 09:25:31;;;;;;;3.23;2.57;;;4.80;88.80;;;;;;5083623;28;20195;-88
2020/12/30 09:27:57;;;;;;;3.27;2.47;;;4.80;88.90;;;;;;5084345;28;20172;-88
2020/12/30 09:30:28;;;;;;;4.63;2.80;;;4.80;89.30;;;;;;5081541;28;20198;-88
2020/12/30 09:32:55;;;;;;;4.40;2.83;;;4.90;89.40;;;;;;5057126;28;20184;-89
2020/12/30 09:35:29;;;;;;;4.83;2.83;;;4.80;89.80;;;;;;5052848;28;20286;-88
2020/12/30 09:37:57;;;;;;;5.77;2.77;;;4.80;90.00;;;;;;5056057;28;20255;-88
2020/12/30 09:40:24;;;;;;;4.27;2.37;;;5.00;89.30;;;;;;5057571;28;20192;-88
2020/12/30 09:42:51;;;;;;;2.80;2.30;;;5.10;87.80;;;;;;5076950;28;20210;-88
2020/12/30 09:45:18;;;;;;;4.27;2.60;;;5.10;88.10;;;;;;5076177;28;20549;-88
2020/12/30 09:47:44;;;;;;;3.70;2.80;;;5.10;88.00;;;;;;5080325;28;20184;-87
2020/12/30 09:50:12;;;;;;;3.80;2.83;;;5.20;88.00;;;;;;5075793;28;20176;-88
2020/12/30 09:52:43;;;;;;;2.60;2.23;;;5.20;87.00;;;;;;5078326;28;20270;-87
2020/12/30 09:55:10;;;;;;;5.27;3.03;;;5.20;87.60;;;;;;5059437;28;20194;-88
2020/12/30 09:57:41;;;;;;;4.00;2.50;;;5.00;88.10;;;;;;5076313;28;20199;-88
2020/12/30 10:00:10;;;;;;;3.70;2.50;;;5.20;87.30;;;;;;5076460;28;20183;-88
2020/12/30 10:02:39;;;;;;;3.87;2.60;;;5.20;87.20;;;;;;5078860;28;20542;-88
2020/12/30 10:05:05;;;;;;;5.43;2.57;;;5.20;88.00;;;;;;5079184;28;20274;-87
2020/12/30 10:07:31;;;;;;;3.80;2.63;;;5.10;89.20;;;;;;5078143;28;20256;-88
2020/12/30 10:09:56;;;;;;;3.87;2.60;;;4.90;90.10;;;;;;5077518;28;20515;-88
2020/12/30 10:12:23;;;;;;;2.47;2.27;;;4.90;91.20;;;;;;5075203;28;20190;-88
2020/12/30 10:14:50;;;;;;;4.57;2.67;;;5.00;88.80;;;;;;5077577;28;20191;-88
2020/12/30 10:17:16;;;;;;;4.30;2.40;;;5.10;87.30;;;;;;5060875;28;20787;-87
2020/12/30 10:19:41;;;;;;;5.73;2.37;;;5.00;89.10;;;;;;5080389;28;20219;-88
2020/12/30 10:22:09;;;;;;;3.73;2.30;;;5.00;87.30;;;;;;5060394;28;20215;-88
2020/12/30 10:24:44;;;;;;;4.73;2.40;;;5.00;88.10;;;;;;5076527;28;20179;-87
2020/12/30 10:27:11;;;;;;;3.77;2.37;;;5.00;87.50;;;;;;5076726;28;20186;-88
2020/12/30 10:29:37;;;;;;;2.63;1.70;;;5.00;87.10;;;;;;5075117;28;20203;-88
2020/12/30 10:32:03;;;;;;;3.37;2.17;;;5.00;87.90;;;;;;5076293;28;20184;-88
2020/12/30 10:34:29;;;;;;;2.40;2.00;;;5.00;87.10;;;;;;5059918;28;20668;-88
2020/12/30 10:36:54;;;;;;;4.27;2.30;;;5.00;87.70;;;;;;5052171;28;20185;-87
2020/12/30 10:39:20;;;;;;;4.30;2.10;;;5.00;87.50;;;;;;5059815;28;20711;-88
2020/12/30 10:41:46;;;;;;;3.93;2.23;;;5.00;87.70;;;;;;5076776;28;20211;-88
2020/12/30 10:44:12;;;;;;;2.23;1.90;;;5.00;88.00;;;;;;5043896;28;20207;-88
2020/12/30 10:46:38;;;;;;;3.53;2.00;;;5.00;87.30;;;;;;5061350;28;20194;-88
2020/12/30 10:49:04;;;;;;;4.13;2.23;;;4.90;87.90;;;;;;5083457;28;20199;-88
2020/12/30 10:51:30;;;;;;;5.13;2.30;;;5.00;87.80;;;;;;5075524;28;20195;-89
2020/12/30 10:53:55;;;;;;;2.70;2.37;;;4.90;88.40;;;;;;5077098;28;20635;-88
2020/12/30 10:56:21;;;;;;;3.53;2.60;;;4.80;88.20;;;;;;5077540;28;20188;-88
2020/12/30 10:58:54;;;;;;;3.63;2.43;;;4.90;88.50;;;;;;5058888;28;20213;-88
2020/12/30 11:01:20;;;;;;;4.27;2.20;;;4.90;88.10;;;;;;5075181;28;20249;-89
2020/12/30 11:03:45;;;;;;;3.77;2.77;;;4.90;88.10;;;;;;5076491;28;20191;-88
2020/12/30 11:06:11;;;;;;;3.13;2.80;;;5.00;88.20;;;;;;5077280;28;20183;-88
2020/12/30 11:08:39;;;;;;;3.30;2.20;;;5.10;86.90;;;;;;5077824;28;20226;-88
2020/12/30 11:11:05;;;;;;;3.17;2.60;;;5.00;86.30;;;;;;5076200;28;20190;-88
2020/12/30 11:13:32;;;;;;;3.47;2.23;;;5.10;86.70;;;;;;5079198;28;20599;-88
2020/12/30 11:15:58;;;;;;;3.87;2.60;;;5.10;88.00;;;;;;5065324;28;20198;-88
2020/12/30 11:18:24;;;;;;;3.47;2.70;;;5.20;86.60;;;;;;5078630;28;20227;-88
2020/12/30 11:20:50;;;;;;;4.93;2.53;;;5.30;86.40;;;;;;5080109;28;20195;-88
2020/12/30 11:23:16;;;;;;;2.73;2.47;;;5.20;87.30;;;;;;5072453;28;20519;-88
2020/12/30 11:25:43;;;;;;;3.30;2.47;;;5.10;87.30;;;;;;5081338;28;20179;-88
2020/12/30 11:28:09;;;;;;;3.73;2.50;;;5.10;87.80;;;;;;5077722;28;20223;-88
2020/12/30 11:30:35;;;;;;;4.33;2.67;;;5.10;88.10;;;;;;5057655;28;20642;-89
2020/12/30 11:33:01;;;;;;;4.87;3.13;;;5.20;87.60;;;;;;5080966;28;20609;-88
2020/12/30 11:35:27;;;;;;;2.90;2.33;;;5.20;88.20;;;;;;5083395;28;20234;-88
2020/12/30 11:37:52;;;;;;;3.10;2.80;;;5.40;86.80;;;;;;5081798;28;20214;-89
2020/12/30 11:40:18;;;;;;;3.07;2.77;;;5.40;87.40;;;;;;5084586;28;20211;-88
2020/12/30 11:42:45;;;;;;;4.47;2.77;;;5.60;84.80;;;;;;5084580;28;20286;-88
2020/12/30 11:45:10;;;;;;;4.57;2.67;;;5.50;84.50;;;;;;5082436;28;20183;-88
2020/12/30 11:47:36;;;;;;;4.83;2.70;;;5.50;84.80;;;;;;5084545;28;20186;-88
2020/12/30 11:50:03;;;;;;;3.47;2.87;;;5.60;84.40;;;;;;5084665;28;20265;-88
2020/12/30 11:52:28;;;;;;;3.30;2.70;;;5.40;84.80;;;;;;5066781;28;20241;-88
2020/12/30 11:54:54;;;;;;;4.97;3.60;;;5.40;85.70;;;;;;5066547;28;20188;-89
2020/12/30 11:57:20;;;;;;;3.73;2.70;;;5.50;83.80;;;;;;5084506;28;20650;-87
2020/12/30 11:59:46;;;;;;;4.80;3.17;;;5.50;84.40;;;;;;5083632;28;20195;-88
2020/12/30 12:02:11;;;;;;;3.20;2.70;;;5.50;85.40;;;;;;5079967;28;20200;-89
2020/12/30 12:04:37;;;;;;;3.50;2.60;;;5.40;85.20;;;;;;5081709;28;20206;-88
2020/12/30 12:07:03;;;;;;;5.47;2.90;;;5.40;84.90;;;;;;5082442;28;20569;-88
2020/12/30 12:09:29;;;;;;;3.50;2.67;;;5.40;84.80;;;;;;5082368;28;20211;-88
2020/12/30 12:11:55;;;;;;;3.60;2.50;;;5.40;84.70;;;;;;5082179;28;20243;-88
2020/12/30 12:14:21;;;;;;;5.93;2.87;;;5.30;84.50;;;;;;5084844;28;20184;-88
2020/12/30 12:16:54;;;;;;;2.80;2.40;;;5.40;84.40;;;;;;5086446;28;20235;-88
2020/12/30 12:19:20;;;;;;;5.50;3.10;;;5.40;85.40;;;;;;5086572;28;20210;-88
2020/12/30 12:21:46;;;;;;;3.80;3.00;;;5.40;85.20;;;;;;5086032;28;20210;-88
2020/12/30 12:24:13;;;;;;;4.37;3.60;;;5.40;85.70;;;;;;5089132;28;20199;-87
2020/12/30 12:26:39;;;;;;;4.00;2.70;;;5.50;84.70;;;;;;5087381;28;20188;-88
2020/12/30 12:29:36;;;;;;;4.50;3.03;;;5.40;84.60;;;;;;5070442;28;20732;-88
2020/12/30 12:32:17;;;;;;;3.27;2.83;;;5.40;86.60;;;;;;5078282;28;20248;-88
2020/12/30 12:34:46;;;;;;;5.07;3.80;;;5.30;87.20;;;;;;5069225;28;20647;-88
2020/12/30 12:37:13;;;;;;;4.13;3.20;;;5.40;86.20;;;;;;5078828;28;20183;-88
2020/12/30 12:39:40;;;;;;;4.03;2.80;;;5.30;85.60;;;;;;5069878;28;20222;-88
2020/12/30 12:42:09;;;;;;;4.83;3.13;;;5.20;85.50;;;;;;5087166;28;20211;-88
2020/12/30 12:44:35;;;;;;;3.97;2.90;;;5.20;86.20;;;;;;5088280;28;20182;-88
2020/12/30 12:47:00;;;;;;;3.87;2.67;;;5.20;85.90;;;;;;5086483;28;20172;-88
2020/12/30 12:49:27;;;;;;;5.40;3.10;;;5.30;85.50;;;;;;5088393;28;20214;-88
2020/12/30 12:51:54;;;;;;;3.90;3.30;;;5.40;85.50;;;;;;5086509;28;20184;-88
2020/12/30 12:54:21;;;;;;;4.10;2.97;;;5.30;86.80;;;;;;5069995;28;20176;-88
2020/12/30 12:56:53;;;;;;;4.07;3.00;;;5.30;85.90;;;;;;5086791;28;20198;-88
2020/12/30 12:59:19;;;;;;;3.83;3.00;;;5.30;86.40;;;;;;5088034;28;20203;-88
2020/12/30 13:01:48;;;;;;;3.87;3.03;;;5.30;86.40;;;;;;5070646;28;20221;-88
2020/12/30 13:04:14;;;;;;;4.67;3.60;;;5.10;87.90;;;;;;5089162;28;20180;-89